Time;durP1;ratioP1;P1;durP2;ratioP2;P2;SDS_P1;SDS_P2;PMS_P1;PMS_P2;Temp;Humidity;BMP_temperature;BMP_pressure;BME280_temperature;BME280_humidity;BME280_pressure;Samples;Min_cycle;Max_cycle;Signal;HPM_P1;HPM_P2
2021/05/09 00:00:26;;;;;;;1999.90;999.90;;;13.80;99.90;;;;;;5057162;28;20200;-78
2021/05/09 00:02:52;;;;;;;1999.90;999.90;;;13.80;99.90;;;;;;5057201;28;20201;-78
2021/05/09 00:05:18;;;;;;;1999.90;999.90;;;13.70;99.90;;;;;;5056925;28;20208;-78
2021/05/09 00:07:43;;;;;;;1999.90;999.90;;;13.70;99.90;;;;;;5057525;28;20438;-78
2021/05/09 00:10:11;;;;;;;1999.90;999.90;;;13.80;99.90;;;;;;5056957;28;20184;-78
2021/05/09 00:12:37;;;;;;;1999.90;999.90;;;13.80;99.90;;;;;;5056321;28;20168;-78
2021/05/09 00:15:08;;;;;;;1999.90;999.90;;;13.70;99.90;;;;;;5057577;28;20398;-78
2021/05/09 00:17:34;;;;;;;1999.90;999.90;;;13.60;99.90;;;;;;5057580;28;20451;-78
2021/05/09 00:20:00;;;;;;;1999.90;999.90;;;13.60;99.90;;;;;;5057841;28;20414;-78
2021/05/09 00:22:25;;;;;;;1999.90;999.90;;;13.60;99.90;;;;;;5057677;28;20509;-78
2021/05/09 00:24:51;;;;;;;1999.90;999.90;;;13.50;99.90;;;;;;5057290;28;20200;-78
2021/05/09 00:27:17;;;;;;;1999.90;999.90;;;13.50;99.90;;;;;;5056687;28;20213;-78
2021/05/09 00:29:43;;;;;;;1999.90;999.90;;;13.50;99.90;;;;;;5057924;28;20222;-78
2021/05/09 00:32:09;;;;;;;1999.90;999.90;;;13.50;99.90;;;;;;5057859;28;20407;-78
2021/05/09 00:34:34;;;;;;;1999.90;999.90;;;13.50;99.90;;;;;;5057649;28;20223;-78
2021/05/09 00:37:00;;;;;;;1999.90;999.90;;;13.50;99.90;;;;;;5057714;28;20204;-78
2021/05/09 00:39:26;;;;;;;1999.90;999.90;;;13.50;99.90;;;;;;5057682;28;20168;-78
2021/05/09 00:42:06;;;;;;;1999.90;999.90;;;13.40;99.90;;;;;;5057725;28;20403;-78
2021/05/09 00:44:32;;;;;;;1999.90;999.90;;;13.40;99.90;;;;;;5057419;28;20667;-78
2021/05/09 00:47:00;;;;;;;1999.90;999.90;;;13.40;99.90;;;;;;5056957;28;20403;-78
2021/05/09 00:49:26;;;;;;;1999.90;999.90;;;13.40;99.90;;;;;;5056712;28;20399;-78
2021/05/09 00:51:52;;;;;;;1999.90;999.90;;;13.30;99.90;;;;;;5056956;28;20442;-78
2021/05/09 00:54:22;;;;;;;1999.90;999.90;;;13.30;99.90;;;;;;5056640;28;20164;-78
2021/05/09 00:56:49;;;;;;;1999.90;999.90;;;13.30;99.90;;;;;;5054976;28;20958;-79
2021/05/09 00:59:16;;;;;;;1999.90;999.90;;;13.30;99.90;;;;;;5056035;28;20481;-78
2021/05/09 01:01:44;;;;;;;1999.90;999.90;;;13.20;99.90;;;;;;5054768;28;20435;-79
2021/05/09 01:04:12;;;;;;;1999.90;999.90;;;13.20;99.90;;;;;;5056211;28;20501;-78
2021/05/09 01:06:38;;;;;;;1999.90;999.90;;;13.20;99.90;;;;;;5056222;28;20226;-78
2021/05/09 01:09:04;;;;;;;1999.90;999.90;;;13.20;99.90;;;;;;5056145;28;20509;-78
2021/05/09 01:11:30;;;;;;;1999.90;999.90;;;13.20;99.90;;;;;;5055781;28;20423;-78
2021/05/09 01:13:55;;;;;;;1999.90;999.90;;;13.10;99.90;;;;;;5055995;28;20402;-78
2021/05/09 01:16:21;;;;;;;1999.90;999.90;;;13.10;99.90;;;;;;5056506;28;20168;-78
2021/05/09 01:18:47;;;;;;;1999.90;999.90;;;13.10;99.90;;;;;;5055642;28;20180;-78
2021/05/09 01:21:12;;;;;;;1999.90;999.90;;;13.00;99.90;;;;;;5055289;28;20164;-78
2021/05/09 01:23:38;;;;;;;1999.90;999.90;;;13.00;99.90;;;;;;5056607;28;20173;-78
2021/05/09 01:26:04;;;;;;;1999.90;999.90;;;13.00;99.90;;;;;;5055741;28;20281;-78
2021/05/09 01:28:29;;;;;;;1999.90;999.90;;;13.00;99.90;;;;;;5056727;28;20177;-78
2021/05/09 01:30:55;;;;;;;1999.90;999.90;;;13.00;99.90;;;;;;5056874;28;20544;-78
2021/05/09 01:33:21;;;;;;;1999.90;999.90;;;12.90;99.90;;;;;;5056600;28;20164;-78
2021/05/09 01:35:48;;;;;;;1999.90;999.90;;;12.90;99.90;;;;;;5056807;28;20164;-78
2021/05/09 01:38:13;;;;;;;1999.90;999.90;;;12.90;99.90;;;;;;5056253;28;20818;-78
2021/05/09 01:40:39;;;;;;;1999.90;999.90;;;12.80;99.90;;;;;;5056047;28;20165;-78
2021/05/09 01:43:05;;;;;;;1999.90;999.90;;;12.80;99.90;;;;;;5056165;28;20164;-78
2021/05/09 01:45:31;;;;;;;1999.90;999.90;;;12.70;99.90;;;;;;5055633;28;20278;-78
2021/05/09 01:47:56;;;;;;;1999.90;999.90;;;12.70;99.90;;;;;;5055118;28;20195;-78
2021/05/09 01:50:22;;;;;;;1999.90;999.90;;;12.60;99.90;;;;;;5055370;28;20449;-78
2021/05/09 01:52:48;;;;;;;1999.90;999.90;;;12.60;99.90;;;;;;5055434;28;20161;-78
2021/05/09 01:55:18;;;;;;;1999.90;999.90;;;12.60;99.90;;;;;;5055198;28;20214;-78
2021/05/09 01:57:44;;;;;;;1999.90;999.90;;;12.60;99.90;;;;;;5054238;28;20794;-78
2021/05/09 02:00:15;;;;;;;1999.90;999.90;;;12.60;99.90;;;;;;5055112;28;20171;-78
2021/05/09 02:02:41;;;;;;;1999.90;999.90;;;12.60;99.90;;;;;;5055568;28;20160;-78
2021/05/09 02:05:08;;;;;;;1999.90;999.90;;;12.60;99.90;;;;;;5053569;28;20200;-78
2021/05/09 02:07:34;;;;;;;1999.90;999.90;;;12.50;99.90;;;;;;5055204;28;20184;-78
2021/05/09 02:10:00;;;;;;;1999.90;999.90;;;12.50;99.90;;;;;;5054930;28;20161;-78
2021/05/09 02:12:26;;;;;;;1999.90;999.90;;;12.50;99.90;;;;;;5055062;28;20172;-78
2021/05/09 02:14:52;;;;;;;1999.90;999.90;;;12.40;99.90;;;;;;5056369;28;20725;-78
2021/05/09 02:17:21;;;;;;;1999.90;999.90;;;12.40;99.90;;;;;;5055887;28;20430;-78
2021/05/09 02:19:47;;;;;;;1999.90;999.90;;;12.40;99.90;;;;;;5055702;28;20616;-78
2021/05/09 02:22:13;;;;;;;1999.90;999.90;;;12.40;99.90;;;;;;5054852;28;20422;-78
2021/05/09 02:24:39;;;;;;;1999.90;999.90;;;12.30;99.90;;;;;;5054982;28;20508;-78
2021/05/09 02:27:05;;;;;;;1999.90;999.90;;;12.30;99.90;;;;;;5055516;28;20419;-78
2021/05/09 02:29:31;;;;;;;1999.90;999.90;;;12.30;99.90;;;;;;5055276;28;20165;-78
2021/05/09 02:31:56;;;;;;;1999.90;999.90;;;12.20;99.90;;;;;;5055382;28;20409;-78
2021/05/09 02:34:22;;;;;;;1999.90;999.90;;;12.20;99.90;;;;;;5053979;28;20263;-78
2021/05/09 02:36:48;;;;;;;1999.90;999.90;;;12.20;99.90;;;;;;5055468;28;20171;-78
2021/05/09 02:39:14;;;;;;;1999.90;999.90;;;12.10;99.90;;;;;;5058787;28;20244;-78
2021/05/09 02:41:40;;;;;;;1999.90;999.90;;;12.10;99.90;;;;;;5058550;28;20176;-78
2021/05/09 02:44:06;;;;;;;1999.90;999.90;;;12.20;99.90;;;;;;5059373;28;20173;-78
2021/05/09 02:46:33;;;;;;;1999.90;999.90;;;12.20;99.90;;;;;;5059754;28;20248;-78
2021/05/09 02:48:59;;;;;;;1999.90;999.90;;;12.10;99.90;;;;;;5059705;28;20592;-78
2021/05/09 02:51:24;;;;;;;1999.90;999.90;;;12.10;99.90;;;;;;5060898;28;20184;-79
2021/05/09 02:53:50;;;;;;;1999.90;999.90;;;12.20;99.90;;;;;;5059962;28;20660;-78
2021/05/09 02:56:16;;;;;;;1999.90;999.90;;;12.20;99.90;;;;;;5059958;28;20175;-78
2021/05/09 02:58:42;;;;;;;1999.90;999.90;;;12.10;99.90;;;;;;5060375;28;20238;-78
2021/05/09 03:01:07;;;;;;;1999.90;999.90;;;12.20;99.90;;;;;;5060531;28;20180;-78
2021/05/09 03:03:33;;;;;;;1999.90;999.90;;;12.10;99.90;;;;;;5060711;28;20169;-78
2021/05/09 03:05:58;;;;;;;1999.90;999.90;;;12.00;99.90;;;;;;5060547;28;20192;-78
2021/05/09 03:08:24;;;;;;;1999.90;999.90;;;12.00;99.90;;;;;;5060644;28;20274;-78
2021/05/09 03:10:50;;;;;;;1999.90;999.90;;;12.00;99.90;;;;;;5060766;28;20192;-78
2021/05/09 03:13:19;;;;;;;1999.90;999.90;;;12.10;99.90;;;;;;5060698;28;20244;-79
2021/05/09 03:15:44;;;;;;;1999.90;999.90;;;12.00;99.90;;;;;;5060330;28;20172;-78
2021/05/09 03:18:10;;;;;;;1999.90;999.90;;;12.00;99.90;;;;;;5059313;28;20200;-78
2021/05/09 03:20:37;;;;;;;1999.90;999.90;;;12.00;99.90;;;;;;5060136;28;20200;-78
2021/05/09 03:23:04;;;;;;;1999.90;999.90;;;11.90;99.90;;;;;;5059131;28;20184;-79
2021/05/09 03:25:30;;;;;;;1999.90;999.90;;;11.90;99.90;;;;;;5060800;28;20215;-78
2021/05/09 03:27:55;;;;;;;1999.90;999.90;;;11.80;99.90;;;;;;5059274;28;20688;-79
2021/05/09 03:30:21;;;;;;;1999.90;999.90;;;11.70;99.90;;;;;;5060980;28;20406;-79
2021/05/09 03:32:47;;;;;;;1999.90;999.90;;;11.70;99.90;;;;;;5060663;28;20168;-79
2021/05/09 03:35:12;;;;;;;1999.90;999.90;;;11.70;99.90;;;;;;5060707;28;20175;-79
2021/05/09 03:37:38;;;;;;;1999.90;999.90;;;11.70;99.90;;;;;;5061034;28;20187;-78
2021/05/09 03:40:06;;;;;;;1999.90;999.90;;;11.70;99.90;;;;;;5060370;28;20176;-78
2021/05/09 03:42:31;;;;;;;1999.90;999.90;;;11.70;99.90;;;;;;5060415;28;20249;-78
2021/05/09 03:44:57;;;;;;;1999.90;999.90;;;11.70;99.90;;;;;;5059993;28;20688;-79
2021/05/09 03:47:26;;;;;;;1999.90;999.90;;;11.70;99.90;;;;;;5058518;28;20235;-78
2021/05/09 03:49:53;;;;;;;1999.90;999.90;;;11.70;99.90;;;;;;5059015;28;20156;-78
2021/05/09 03:52:19;;;;;;;1999.90;999.90;;;11.70;99.90;;;;;;5057317;28;20168;-78
2021/05/09 03:54:45;;;;;;;1999.90;999.90;;;11.70;99.90;;;;;;5058686;28;20180;-78
2021/05/09 03:57:10;;;;;;;1999.90;999.90;;;11.70;99.90;;;;;;5057912;28;20189;-78
2021/05/09 03:59:36;;;;;;;1999.90;999.90;;;11.70;99.90;;;;;;5057644;28;20399;-78
2021/05/09 04:02:01;;;;;;;1999.90;999.90;;;11.60;99.90;;;;;;5057983;28;20161;-78
2021/05/09 04:04:27;;;;;;;1999.90;999.90;;;11.60;99.90;;;;;;5057512;28;20184;-78
2021/05/09 04:06:53;;;;;;;1999.90;999.90;;;11.50;99.90;;;;;;5057798;28;20184;-78
2021/05/09 04:09:18;;;;;;;1999.90;999.90;;;11.50;99.90;;;;;;5057691;28;20164;-78
2021/05/09 04:11:44;;;;;;;1999.90;999.90;;;11.50;99.90;;;;;;5057135;28;20156;-78
2021/05/09 04:14:10;;;;;;;1999.90;999.90;;;11.50;99.90;;;;;;5057509;28;20285;-78
2021/05/09 04:16:35;;;;;;;1999.90;999.90;;;11.40;99.90;;;;;;5057433;28;20172;-78
2021/05/09 04:19:01;;;;;;;1999.90;999.90;;;11.30;99.90;;;;;;5056934;28;20683;-78
2021/05/09 04:21:26;;;;;;;1999.90;999.90;;;11.30;99.90;;;;;;5057616;28;20161;-78
2021/05/09 04:23:52;;;;;;;1999.90;999.90;;;11.30;99.90;;;;;;5056996;28;20168;-78
2021/05/09 04:26:18;;;;;;;1999.90;999.90;;;11.30;99.90;;;;;;5056581;28;20169;-78
2021/05/09 04:28:43;;;;;;;1999.90;999.90;;;11.30;99.90;;;;;;5056223;28;20191;-78
2021/05/09 04:31:09;;;;;;;1999.90;999.90;;;11.30;99.90;;;;;;5056518;28;20160;-78
2021/05/09 04:33:35;;;;;;;1999.90;999.90;;;11.30;99.90;;;;;;5056918;28;20169;-78
2021/05/09 04:36:00;;;;;;;1999.90;999.90;;;11.30;99.90;;;;;;5056624;28;20170;-78
2021/05/09 04:38:26;;;;;;;1999.90;999.90;;;11.40;99.90;;;;;;5056324;28;20664;-78
2021/05/09 04:40:52;;;;;;;1999.90;999.90;;;11.50;99.90;;;;;;5055102;28;20179;-78
2021/05/09 04:43:19;;;;;;;1999.90;999.90;;;11.60;99.90;;;;;;5056882;28;20176;-78
2021/05/09 04:45:50;;;;;;;1999.90;999.90;;;11.80;99.90;;;;;;5056766;28;20189;-78
2021/05/09 04:48:16;;;;;;;1999.90;999.90;;;11.90;99.90;;;;;;5056877;28;20555;-78
2021/05/09 04:50:42;;;;;;;1999.90;999.90;;;12.10;99.90;;;;;;5056467;28;20161;-78
2021/05/09 04:53:27;;;;;;;1999.90;999.90;;;12.20;99.90;;;;;;5057150;28;20399;-78
2021/05/09 04:55:55;;;;;;;1999.90;999.90;;;12.40;99.90;;;;;;5057619;28;20175;-78
2021/05/09 04:58:21;;;;;;;1999.90;999.90;;;12.30;99.90;;;;;;5057927;28;20295;-78
2021/05/09 05:00:53;;;;;;;1999.90;999.90;;;12.30;99.90;;;;;;5056773;28;20171;-78
2021/05/09 05:03:19;;;;;;;1999.90;999.90;;;12.40;99.90;;;;;;5057980;28;20621;-78
2021/05/09 05:05:45;;;;;;;1999.90;999.90;;;12.50;99.90;;;;;;5111455;22;20225;-78
2021/05/09 05:08:11;;;;;;;1999.90;999.90;;;12.60;99.90;;;;;;5035450;28;20178;-78
2021/05/09 05:10:37;;;;;;;1999.90;999.90;;;12.60;99.90;;;;;;5035879;28;20180;-78
2021/05/09 05:13:02;;;;;;;1999.90;999.90;;;12.60;99.90;;;;;;5035466;28;20299;-78
2021/05/09 05:15:28;;;;;;;1999.90;999.90;;;12.70;99.90;;;;;;5035845;28;20283;-78
2021/05/09 05:17:54;;;;;;;1999.90;999.90;;;12.70;99.90;;;;;;5035451;28;20469;-78
2021/05/09 05:20:19;;;;;;;1999.90;999.90;;;12.80;99.90;;;;;;5036079;28;20175;-78
2021/05/09 05:22:45;;;;;;;1999.90;999.90;;;12.80;99.90;;;;;;5035759;28;20184;-78
2021/05/09 05:25:11;;;;;;;1999.90;999.90;;;12.70;99.90;;;;;;5036839;28;20287;-78
2021/05/09 05:27:37;;;;;;;1999.90;999.90;;;12.80;99.90;;;;;;5036523;28;20223;-79
2021/05/09 05:30:03;;;;;;;1999.90;999.90;;;12.90;99.90;;;;;;5036159;28;20169;-78
2021/05/09 05:32:29;;;;;;;1999.90;999.90;;;12.90;99.90;;;;;;5037190;28;20223;-79
2021/05/09 05:34:54;;;;;;;1999.90;999.90;;;13.00;99.90;;;;;;5037665;28;20243;-78
2021/05/09 05:37:20;;;;;;;1999.90;999.90;;;13.00;99.90;;;;;;5038431;28;20246;-79
2021/05/09 05:39:46;;;;;;;1999.90;999.90;;;13.10;99.90;;;;;;5038235;28;20169;-79
2021/05/09 05:42:11;;;;;;;1999.90;999.90;;;13.20;99.90;;;;;;5020737;28;20255;-79
2021/05/09 05:44:38;;;;;;;1999.90;999.90;;;13.20;99.90;;;;;;5037832;28;20192;-79
2021/05/09 05:47:03;;;;;;;1999.90;999.90;;;13.30;99.90;;;;;;5039181;28;20177;-79
2021/05/09 05:49:29;;;;;;;1999.90;999.90;;;13.30;99.90;;;;;;5041144;28;20195;-79
2021/05/09 05:51:55;;;;;;;1999.90;999.90;;;13.40;99.90;;;;;;5039750;28;20162;-79
2021/05/09 05:54:21;;;;;;;1999.90;999.90;;;13.50;99.90;;;;;;5037563;28;20184;-79
2021/05/09 05:56:46;;;;;;;1999.90;999.90;;;13.60;99.90;;;;;;5036804;28;20411;-78
2021/05/09 05:59:12;;;;;;;1999.90;999.90;;;13.70;99.90;;;;;;5020767;28;20199;-78
2021/05/09 06:01:38;;;;;;;1999.90;999.90;;;13.70;99.90;;;;;;5019673;28;20219;-78
2021/05/09 06:04:04;;;;;;;1999.90;999.90;;;13.80;99.90;;;;;;5018174;28;20169;-78
2021/05/09 06:06:30;;;;;;;1999.90;999.90;;;13.90;99.90;;;;;;5013610;28;670380;-78
2021/05/09 06:08:56;;;;;;;1999.90;999.90;;;13.90;99.90;;;;;;5036776;28;21073;-78
2021/05/09 06:11:22;;;;;;;1999.90;999.90;;;13.90;99.90;;;;;;5038036;28;20161;-78
2021/05/09 06:13:48;;;;;;;1999.90;999.90;;;13.90;99.90;;;;;;5023138;28;20176;-78
2021/05/09 06:16:14;;;;;;;1999.90;999.90;;;14.00;99.90;;;;;;5040249;28;20165;-78
2021/05/09 06:18:39;;;;;;;1999.90;999.90;;;14.10;99.90;;;;;;5039372;28;20254;-78
2021/05/09 06:21:05;;;;;;;1999.90;999.90;;;14.20;99.90;;;;;;5040350;28;20838;-78
2021/05/09 06:23:31;;;;;;;1999.90;999.90;;;14.30;99.90;;;;;;5040018;28;20252;-78
2021/05/09 06:25:57;;;;;;;1999.90;999.90;;;14.40;99.90;;;;;;5039884;28;20443;-78
2021/05/09 06:28:22;;;;;;;1999.90;999.90;;;14.40;99.90;;;;;;5040171;28;20181;-78
2021/05/09 06:30:51;;;;;;;1999.90;999.90;;;14.50;99.90;;;;;;5040505;28;20399;-78
2021/05/09 06:33:17;;;;;;;1999.90;999.90;;;14.50;99.90;;;;;;5040191;28;20179;-78
2021/05/09 06:35:43;;;;;;;1999.90;999.90;;;14.60;99.90;;;;;;5041267;28;20443;-79
2021/05/09 06:38:09;;;;;;;1999.90;999.90;;;14.70;99.90;;;;;;5040805;28;20195;-78
2021/05/09 06:40:37;;;;;;;1999.90;999.90;;;14.80;99.90;;;;;;5040864;28;20491;-78
2021/05/09 06:43:06;;;;;;;1999.90;999.90;;;14.90;99.90;;;;;;5040906;28;20169;-78
2021/05/09 06:45:33;;;;;;;1999.90;999.90;;;15.00;99.90;;;;;;5041156;28;20439;-78
2021/05/09 06:48:05;;;;;;;1999.90;999.90;;;15.10;99.90;;;;;;5040414;28;20415;-78
2021/05/09 06:50:33;;;;;;;1999.90;999.90;;;15.20;99.90;;;;;;5040024;28;20372;-79
2021/05/09 06:52:59;;;;;;;1999.90;999.90;;;15.40;99.90;;;;;;5039699;28;20760;-78
2021/05/09 06:55:29;;;;;;;1999.90;999.90;;;15.60;99.90;;;;;;5039158;28;20407;-78
2021/05/09 06:57:55;;;;;;;1999.90;999.90;;;15.80;99.90;;;;;;5039712;28;20477;-79
2021/05/09 07:00:21;;;;;;;1999.90;999.90;;;16.00;99.90;;;;;;5039326;28;20498;-79
2021/05/09 07:02:50;;;;;;;1999.90;999.90;;;16.10;99.90;;;;;;5039886;28;20927;-79
2021/05/09 07:05:16;;;;;;;1999.90;999.90;;;16.20;99.90;;;;;;5039617;28;20541;-78
2021/05/09 07:07:53;;;;;;;1999.90;999.90;;;16.40;99.90;;;;;;5039220;28;20447;-78
2021/05/09 07:10:23;;;;;;;1999.90;999.90;;;16.60;99.90;;;;;;5038527;28;20431;-79
2021/05/09 07:12:49;;;;;;;1999.90;999.90;;;16.70;99.90;;;;;;5038032;28;20388;-78
2021/05/09 07:15:24;;;;;;;1999.90;999.90;;;16.80;99.90;;;;;;5039561;28;20409;-78
2021/05/09 07:20:39;;;;;;;1999.90;999.90;;;16.90;99.90;;;;;;5039665;28;20385;-78
2021/05/09 07:23:06;;;;;;;1999.90;999.90;;;17.00;99.90;;;;;;5040970;28;20407;-79
2021/05/09 07:25:32;;;;;;;1999.90;999.90;;;17.20;99.90;;;;;;5039696;28;20478;-79
2021/05/09 07:28:14;;;;;;;1999.90;999.90;;;17.20;99.90;;;;;;5040420;28;20451;-78
2021/05/09 07:30:43;;;;;;;1999.90;999.90;;;17.20;99.90;;;;;;5040872;28;20914;-79
2021/05/09 07:33:09;;;;;;;1999.90;999.90;;;17.30;99.90;;;;;;5040054;28;20881;-79
2021/05/09 07:35:35;;;;;;;1999.90;999.90;;;17.30;99.90;;;;;;5040584;28;20413;-79
2021/05/09 07:38:02;;;;;;;1999.90;999.90;;;17.50;99.90;;;;;;5040944;28;20439;-79
2021/05/09 07:40:28;;;;;;;1999.90;999.90;;;17.50;99.90;;;;;;5040963;28;20403;-78
2021/05/09 07:42:54;;;;;;;1999.90;999.90;;;17.60;99.90;;;;;;5040992;28;20411;-79
2021/05/09 07:45:21;;;;;;;1999.90;999.90;;;17.80;99.90;;;;;;5040243;28;20450;-79
2021/05/09 07:47:47;;;;;;;1999.90;999.90;;;18.00;99.90;;;;;;5022903;28;20199;-79
2021/05/09 07:50:15;;;;;;;1999.90;999.90;;;17.90;99.90;;;;;;5040519;28;20396;-79
2021/05/09 07:52:45;;;;;;;1999.90;999.90;;;17.90;99.90;;;;;;5040058;28;20927;-79
2021/05/09 07:55:13;;;;;;;1999.90;999.90;;;17.90;99.90;;;;;;5040562;28;20899;-79
2021/05/09 07:57:39;;;;;;;1999.90;999.90;;;17.80;99.90;;;;;;5039902;28;20887;-78
2021/05/09 08:00:10;;;;;;;1999.90;999.90;;;17.80;99.90;;;;;;5040506;28;20489;-79
2021/05/09 08:02:36;;;;;;;1999.90;999.90;;;17.70;99.90;;;;;;5040312;28;20378;-79
2021/05/09 08:05:02;;;;;;;1999.90;999.90;;;17.80;99.90;;;;;;5040357;28;20462;-79
2021/05/09 08:07:28;;;;;;;1999.90;999.90;;;17.90;99.90;;;;;;5040113;28;20211;-79
2021/05/09 08:09:54;;;;;;;1999.90;999.90;;;18.10;99.90;;;;;;5023222;28;20817;-79
2021/05/09 08:12:19;;;;;;;1999.90;999.90;;;18.30;99.90;;;;;;5040409;28;20655;-79
2021/05/09 08:14:45;;;;;;;1999.90;999.90;;;18.50;99.90;;;;;;5040488;28;20173;-79
2021/05/09 08:17:10;;;;;;;1999.90;999.90;;;18.70;99.90;;;;;;5039996;28;20687;-80
2021/05/09 08:19:36;;;;;;;1999.90;999.90;;;19.00;99.90;;;;;;5021640;28;20246;-79
2021/05/09 08:22:02;;;;;;;1999.90;999.90;;;19.10;99.90;;;;;;5021975;28;20168;-79
2021/05/09 08:24:32;;;;;;;1999.90;999.90;;;19.10;99.90;;;;;;5040037;28;20263;-79
2021/05/09 08:26:58;;;;;;;1999.90;999.90;;;19.30;99.90;;;;;;5039809;28;20400;-79
2021/05/09 08:29:24;;;;;;;1999.90;999.90;;;19.30;99.90;;;;;;5039183;28;20399;-79
2021/05/09 08:31:50;;;;;;;1999.90;999.90;;;19.30;99.00;;;;;;5040101;28;20403;-79
2021/05/09 08:34:16;;;;;;;1999.90;999.90;;;19.40;99.90;;;;;;5039395;28;20403;-78
2021/05/09 08:36:41;;;;;;;1999.90;999.90;;;19.50;99.90;;;;;;5040552;28;20475;-79
2021/05/09 08:39:07;;;;;;;1999.90;999.90;;;19.60;99.80;;;;;;5039659;28;20182;-79
2021/05/09 08:41:40;;;;;;;1999.90;999.90;;;19.70;99.90;;;;;;5040158;28;20174;-79
2021/05/09 08:44:10;;;;;;;1999.90;999.90;;;19.80;99.90;;;;;;5039617;28;20475;-79
2021/05/09 08:46:37;;;;;;;1999.90;999.90;;;20.00;99.90;;;;;;5039950;28;20439;-81
2021/05/09 08:49:04;;;;;;;1999.90;999.90;;;20.20;97.20;;;;;;5040443;28;20420;-80
2021/05/09 08:51:31;;;;;;;1999.90;999.90;;;20.30;95.00;;;;;;5021833;28;20443;-80
2021/05/09 08:53:57;;;;;;;1999.90;999.90;;;20.40;97.90;;;;;;5039458;28;20768;-81
2021/05/09 08:56:26;;;;;;;1999.90;999.90;;;20.60;94.60;;;;;;5039656;28;20416;-81
2021/05/09 08:58:53;;;;;;;1999.90;999.90;;;20.70;93.30;;;;;;5021744;28;20431;-81
2021/05/09 09:01:19;;;;;;;1999.90;999.90;;;20.60;93.10;;;;;;5039850;28;20400;-81
2021/05/09 09:03:45;;;;;;;1999.90;999.90;;;20.60;92.60;;;;;;5039985;28;20407;-81
2021/05/09 09:06:16;;;;;;;1999.90;999.90;;;20.60;93.90;;;;;;5021909;28;20201;-80
2021/05/09 09:08:52;;;;;;;1999.90;999.90;;;20.70;92.30;;;;;;5040330;28;20435;-79
2021/05/09 09:11:31;;;;;;;1999.90;999.90;;;20.80;92.00;;;;;;5040241;28;20400;-81
2021/05/09 09:14:13;;;;;;;1999.90;999.90;;;20.90;90.50;;;;;;5022579;28;20380;-80
2021/05/09 09:16:39;;;;;;;1999.90;999.90;;;20.90;91.70;;;;;;5039724;28;20423;-80
2021/05/09 09:19:15;;;;;;;1999.90;999.90;;;21.00;90.60;;;;;;5038644;28;20431;-81
2021/05/09 09:21:41;;;;;;;1999.90;999.90;;;21.20;91.10;;;;;;5039777;28;20425;-81
2021/05/09 09:24:11;;;;;;;1999.90;999.90;;;21.20;90.00;;;;;;5040002;28;20432;-81
2021/05/09 09:26:51;;;;;;;1999.90;999.90;;;21.30;89.00;;;;;;5039668;28;20404;-81
2021/05/09 09:29:28;;;;;;;1999.90;999.90;;;21.30;86.10;;;;;;5039435;28;20426;-81
2021/05/09 09:32:10;;;;;;;1999.90;999.90;;;21.40;86.00;;;;;;5039017;28;20940;-81
2021/05/09 09:34:48;;;;;;;1999.90;999.90;;;21.40;89.60;;;;;;5040162;28;20457;-81
2021/05/09 09:37:17;;;;;;;1999.90;999.90;;;21.60;89.70;;;;;;5021326;28;20495;-81
2021/05/09 09:40:00;;;;;;;1999.90;999.90;;;21.80;87.00;;;;;;5021952;28;20464;-81
2021/05/09 09:42:41;;;;;;;1999.90;999.90;;;22.00;82.70;;;;;;5022316;28;20765;-80
2021/05/09 09:45:15;;;;;;;1999.90;999.90;;;22.10;79.90;;;;;;5039720;28;20453;-81
2021/05/09 09:48:02;;;;;;;1999.90;999.90;;;22.10;82.40;;;;;;5021776;28;20413;-80
2021/05/09 09:50:41;;;;;;;1999.90;999.90;;;22.30;85.20;;;;;;5039255;28;20421;-81
2021/05/09 09:53:30;;;;;;;1999.90;999.90;;;22.50;82.30;;;;;;5021627;28;20484;-81
2021/05/09 09:56:10;;;;;;;1999.90;999.90;;;22.70;75.40;;;;;;5039686;28;20407;-81
2021/05/09 09:58:49;;;;;;;1999.90;999.90;;;22.80;73.70;;;;;;5021859;28;20425;-81
2021/05/09 10:01:29;;;;;;;1999.90;999.90;;;22.80;75.50;;;;;;5039320;28;20403;-81
2021/05/09 10:03:57;;;;;;;1999.90;999.90;;;22.60;76.00;;;;;;5021734;28;20493;-81
2021/05/09 10:06:32;;;;;;;1999.90;999.90;;;22.60;76.00;;;;;;5039105;28;20512;-81
2021/05/09 10:09:01;;;;;;;1999.90;999.90;;;22.70;74.80;;;;;;5039166;28;20433;-81
2021/05/09 10:11:31;;;;;;;1999.90;999.90;;;22.80;75.80;;;;;;5021309;28;20421;-81
2021/05/09 10:14:01;;;;;;;1999.90;999.90;;;23.10;69.70;;;;;;5021955;28;20407;-81
2021/05/09 10:16:39;;;;;;;1999.90;999.90;;;23.20;68.60;;;;;;5021398;28;20485;-80
2021/05/09 10:19:11;;;;;;;1999.90;999.90;;;23.40;67.30;;;;;;5039037;28;20472;-82
2021/05/09 10:21:40;;;;;;;1999.90;999.90;;;23.40;67.20;;;;;;5039402;28;20381;-81
2021/05/09 10:24:09;;;;;;;1999.90;999.90;;;23.40;60.10;;;;;;5021109;28;20417;-81
2021/05/09 10:26:54;;;;;;;1999.90;999.90;;;23.60;66.10;;;;;;5021174;28;20566;-81
2021/05/09 10:29:37;;;;;;;1999.90;999.90;;;23.90;61.90;;;;;;5039351;28;20380;-81
2021/05/09 10:32:21;;;;;;;1999.90;999.90;;;24.20;59.60;;;;;;5038902;28;20958;-81
2021/05/09 10:34:53;;;;;;;1999.90;999.90;;;24.50;61.90;;;;;;5038922;28;20408;-81
2021/05/09 10:40:22;;;;;;;1999.90;999.90;;;25.00;50.40;;;;;;5039551;28;20806;-81
2021/05/09 10:43:09;;;;;;;1999.90;999.90;;;25.00;50.30;;;;;;5038789;28;20407;-81
2021/05/09 10:45:34;;;;;;;1999.90;999.90;;;25.00;47.00;;;;;;5038396;28;20451;-81
2021/05/09 10:48:19;;;;;;;1999.90;999.90;;;24.90;48.30;;;;;;5038430;28;20427;-79
2021/05/09 10:51:06;;;;;;;1999.90;999.90;;;24.90;42.70;;;;;;5021410;28;20174;-81
2021/05/09 10:53:39;;;;;;;1999.90;999.90;;;25.00;45.70;;;;;;5020512;28;20408;-81
2021/05/09 10:56:07;;;;;;;1999.90;999.90;;;25.00;47.90;;;;;;5039820;28;20388;-81
2021/05/09 10:58:38;;;;;;;1999.90;999.90;;;25.10;46.20;;;;;;5041215;28;20780;-79
2021/05/09 11:01:07;;;;;;;1999.90;999.90;;;25.30;41.70;;;;;;5041425;28;20403;-79
2021/05/09 11:03:36;;;;;;;1999.90;999.90;;;25.30;39.50;;;;;;5023840;28;20439;-79
2021/05/09 11:06:10;;;;;;;1999.90;999.90;;;25.30;42.20;;;;;;5125606;22;20486;-84
2021/05/09 11:08:45;;;;;;;1999.90;999.90;;;25.50;46.30;;;;;;5082054;28;20418;-85
2021/05/09 11:11:46;;;;;;;1999.90;999.90;;;25.60;39.40;;;;;;5082179;28;20423;-84
2021/05/09 11:14:11;;;;;;;1999.90;999.90;;;25.60;37.00;;;;;;5081720;28;20387;-84
2021/05/09 11:16:38;;;;;;;1999.90;999.90;;;25.60;35.40;;;;;;5080954;28;20407;-84
2021/05/09 11:19:11;;;;;;;1999.90;999.90;;;25.60;37.40;;;;;;5081856;28;20189;-84
2021/05/09 11:21:38;;;;;;;1999.90;999.90;;;25.60;29.30;;;;;;5080967;28;20507;-84
2021/05/09 11:24:05;;;;;;;1999.90;999.90;;;25.50;24.50;;;;;;5080928;28;20979;-84
2021/05/09 11:26:40;;;;;;;1999.90;999.90;;;25.50;26.00;;;;;;5081641;28;20397;-84
2021/05/09 11:29:08;;;;;;;1999.90;999.90;;;25.60;28.00;;;;;;5081187;28;20413;-84
2021/05/09 11:31:40;;;;;;;1999.90;999.90;;;25.80;27.40;;;;;;5081514;28;20400;-84
2021/05/09 11:34:06;;;;;;;1999.90;999.90;;;26.00;27.00;;;;;;5081584;28;20738;-84
2021/05/09 11:36:34;;;;;;;1999.90;999.90;;;26.30;26.80;;;;;;5080204;28;20436;-83
2021/05/09 11:39:13;;;;;;;1999.90;999.90;;;26.60;20.20;;;;;;5079628;28;20497;-84
2021/05/09 11:41:50;;;;;;;1999.90;999.90;;;26.80;18.70;;;;;;5080326;28;20424;-84
2021/05/09 11:44:17;;;;;;;1999.90;999.90;;;27.10;16.20;;;;;;5079216;28;20409;-84
2021/05/09 11:46:42;;;;;;;1999.90;999.90;;;27.30;7.90;;;;;;5078812;28;20405;-84
2021/05/09 11:49:26;;;;;;;1999.90;999.90;;;27.40;7.50;;;;;;5079525;28;20417;-84
2021/05/09 11:51:59;;;;;;;1999.90;999.90;;;27.60;6.50;;;;;;5079313;28;20152;-84
2021/05/09 11:54:28;;;;;;;1999.90;999.90;;;27.90;1.80;;;;;;5078777;28;20390;-84
2021/05/09 11:56:56;;;;;;;1999.90;999.90;;;27.70;1.00;;;;;;5077495;28;20414;-84
2021/05/09 11:59:45;;;;;;;1999.90;999.90;;;27.70;1.00;;;;;;5077377;28;20405;-84
2021/05/09 12:02:20;;;;;;;1999.90;999.90;;;27.80;1.00;;;;;;5076340;28;20402;-85
2021/05/09 12:04:56;;;;;;;1999.90;999.90;;;27.80;1.00;;;;;;5079160;28;20382;-85
2021/05/09 12:07:26;;;;;;;1999.90;999.90;;;28.00;1.00;;;;;;5078252;28;20442;-85
2021/05/09 12:09:58;;;;;;;1999.90;999.90;;;28.00;1.00;;;;;;5076831;28;20414;-85